Time;durP1;ratioP1;P1;durP2;ratioP2;P2;SDS_P1;SDS_P2;PMS_P1;PMS_P2;Temp;Humidity;BMP_temperature;BMP_pressure;BME280_temperature;BME280_humidity;BME280_pressure;Samples;Min_cycle;Max_cycle;Signal;HPM_P1;HPM_P2
2024/03/19 00:00:48;;;;;;;133.73;127.05;;;;;;;;;;5111647;28;20020;-59
2024/03/19 00:03:14;;;;;;;130.07;123.57;;;;;;;;;;5111225;28;20084;-59
2024/03/19 00:05:39;;;;;;;133.38;126.65;;;;;;;;;;5110163;28;20024;-59
2024/03/19 00:08:05;;;;;;;134.77;127.97;;;;;;;;;;5094680;28;20026;-60
2024/03/19 00:10:30;;;;;;;130.15;123.53;;;;;;;;;;5095477;28;20035;-59
2024/03/19 00:12:55;;;;;;;136.55;129.70;;;;;;;;;;5115868;28;20055;-59
2024/03/19 00:15:21;;;;;;;133.95;127.28;;;;;;;;;;5111653;28;20454;-59
2024/03/19 00:17:46;;;;;;;141.80;134.57;;;;;;;;;;5096728;28;20020;-59
2024/03/19 00:20:12;;;;;;;121.43;115.32;;;;;;;;;;5108623;28;20024;-54
2024/03/19 00:22:38;;;;;;;125.28;118.70;;;;;;;;;;5115757;28;20026;-54
2024/03/19 00:25:06;;;;;;;126.82;120.47;;;;;;;;;;5113819;28;20380;-52
2024/03/19 00:27:32;;;;;;;126.88;120.43;;;;;;;;;;5111035;28;20035;-52
2024/03/19 00:29:58;;;;;;;121.13;114.85;;;;;;;;;;5112255;28;20106;-53
2024/03/19 00:32:23;;;;;;;134.00;127.22;;;;;;;;;;5115642;28;20094;-49
2024/03/19 00:34:49;;;;;;;133.02;126.40;;;;;;;;;;5108508;28;20055;-54
2024/03/19 00:37:14;;;;;;;135.68;127.93;;;;;;;;;;5111334;28;20027;-52
2024/03/19 00:39:40;;;;;;;137.43;130.25;;;;;;;;;;5094098;28;20531;-52
2024/03/19 00:42:06;;;;;;;135.40;128.60;;;;;;;;;;5112205;28;20647;-53
2024/03/19 00:44:32;;;;;;;127.03;120.45;;;;;;;;;;5113363;28;20360;-53
2024/03/19 00:46:58;;;;;;;122.78;116.65;;;;;;;;;;5109575;28;20092;-53
2024/03/19 00:49:24;;;;;;;129.55;122.15;;;;;;;;;;5112559;27;20035;-53
2024/03/19 00:51:50;;;;;;;131.38;124.80;;;;;;;;;;5113359;27;20023;-51
2024/03/19 00:54:15;;;;;;;129.38;122.75;;;;;;;;;;5114803;27;20784;-53
2024/03/19 00:56:40;;;;;;;121.53;115.47;;;;;;;;;;5115508;27;20035;-55
2024/03/19 00:59:06;;;;;;;127.05;120.50;;;;;;;;;;5115552;27;20069;-53
2024/03/19 01:01:31;;;;;;;124.03;117.78;;;;;;;;;;5115081;27;20109;-54
2024/03/19 01:03:58;;;;;;;127.55;121.05;;;;;;;;;;5114028;27;20081;-53
2024/03/19 01:06:24;;;;;;;126.07;119.78;;;;;;;;;;5115263;27;20032;-53
2024/03/19 01:08:50;;;;;;;130.30;123.75;;;;;;;;;;5115343;27;20053;-52
2024/03/19 01:11:15;;;;;;;124.03;117.72;;;;;;;;;;5114359;27;20023;-55
2024/03/19 01:13:41;;;;;;;126.18;119.88;;;;;;;;;;5114364;27;20055;-54
2024/03/19 01:16:07;;;;;;;130.45;123.93;;;;;;;;;;5114473;27;20356;-53
2024/03/19 01:18:33;;;;;;;128.65;122.18;;;;;;;;;;5094889;27;20043;-53
2024/03/19 01:20:58;;;;;;;119.93;113.93;;;;;;;;;;5096883;27;20015;-54
2024/03/19 01:23:24;;;;;;;121.00;114.88;;;;;;;;;;5114748;27;20051;-52
2024/03/19 01:25:49;;;;;;;109.22;103.65;;;;;;;;;;5112424;27;20067;-51
2024/03/19 01:28:15;;;;;;;102.18;96.93;;;;;;;;;;5116896;27;20372;-54
2024/03/19 01:30:41;;;;;;;107.30;101.82;;;;;;;;;;5112818;27;21209;-53
2024/03/19 01:33:06;;;;;;;99.28;94.15;;;;;;;;;;5113936;27;20045;-54
2024/03/19 01:35:31;;;;;;;101.18;96.00;;;;;;;;;;5115295;27;20028;-55
2024/03/19 01:37:57;;;;;;;107.82;102.40;;;;;;;;;;5116317;27;20027;-52
2024/03/19 01:40:23;;;;;;;108.32;102.63;;;;;;;;;;5115781;27;20619;-54
2024/03/19 01:42:49;;;;;;;110.32;104.78;;;;;;;;;;5117623;27;20126;-52
2024/03/19 01:45:15;;;;;;;100.25;95.10;;;;;;;;;;5115303;27;20116;-52
2024/03/19 01:47:42;;;;;;;104.25;98.95;;;;;;;;;;5116275;27;20158;-51
2024/03/19 01:50:10;;;;;;;103.25;98.07;;;;;;;;;;5116007;27;20185;-53
2024/03/19 01:52:41;;;;;;;97.95;93.00;;;;;;;;;;5117683;27;20038;-52
2024/03/19 01:55:07;;;;;;;96.43;91.45;;;;;;;;;;5116875;27;20058;-52
2024/03/19 01:57:32;;;;;;;95.30;90.35;;;;;;;;;;5097338;27;20556;-52
2024/03/19 01:59:58;;;;;;;99.20;94.05;;;;;;;;;;5097318;27;20341;-53
2024/03/19 02:02:34;;;;;;;98.53;93.53;;;;;;;;;;5114075;27;20027;-55
2024/03/19 02:05:00;;;;;;;90.93;86.28;;;;;;;;;;5112156;27;20093;-55
2024/03/19 02:07:26;;;;;;;91.82;87.25;;;;;;;;;;5112498;27;20032;-52
2024/03/19 02:09:53;;;;;;;83.65;79.45;;;;;;;;;;5096715;27;20054;-55
2024/03/19 02:12:20;;;;;;;88.75;84.30;;;;;;;;;;5114142;27;20427;-52
2024/03/19 02:14:46;;;;;;;80.82;76.75;;;;;;;;;;5113147;27;20554;-55
2024/03/19 02:17:11;;;;;;;74.38;70.60;;;;;;;;;;5112336;27;20035;-54
2024/03/19 02:19:38;;;;;;;77.60;73.70;;;;;;;;;;5115659;27;20405;-53
2024/03/19 02:22:04;;;;;;;69.57;66.07;;;;;;;;;;5116642;27;20034;-54
2024/03/19 02:24:29;;;;;;;63.67;60.50;;;;;;;;;;5096399;27;20084;-52
2024/03/19 02:26:54;;;;;;;57.22;54.35;;;;;;;;;;5114067;27;20035;-54
2024/03/19 02:29:20;;;;;;;53.58;50.85;;;;;;;;;;5110938;27;20046;-54
2024/03/19 02:31:45;;;;;;;53.78;50.97;;;;;;;;;;5111889;27;20031;-53
2024/03/19 02:34:10;;;;;;;51.88;49.20;;;;;;;;;;5115366;27;20034;-55
2024/03/19 02:36:36;;;;;;;49.50;46.97;;;;;;;;;;5094893;27;20028;-54
2024/03/19 02:39:01;;;;;;;50.58;48.00;;;;;;;;;;5114731;27;20031;-52
2024/03/19 02:41:26;;;;;;;45.85;43.50;;;;;;;;;;5111885;27;20118;-53
2024/03/19 02:43:52;;;;;;;48.95;46.47;;;;;;;;;;5087240;27;20038;-54
2024/03/19 02:46:17;;;;;;;54.50;51.63;;;;;;;;;;5114376;27;20472;-51
2024/03/19 02:48:42;;;;;;;57.13;54.22;;;;;;;;;;5112438;27;20027;-55
2024/03/19 02:51:08;;;;;;;54.25;51.40;;;;;;;;;;5114489;27;20468;-51
2024/03/19 02:53:34;;;;;;;49.42;46.92;;;;;;;;;;5113542;27;20039;-55
2024/03/19 02:56:00;;;;;;;52.80;49.88;;;;;;;;;;5113307;27;20027;-54
2024/03/19 02:58:26;;;;;;;54.65;51.88;;;;;;;;;;5112625;27;20136;-52
2024/03/19 03:00:54;;;;;;;53.17;50.50;;;;;;;;;;5113835;27;20355;-52
2024/03/19 03:03:20;;;;;;;50.20;47.60;;;;;;;;;;5112000;27;20104;-51
2024/03/19 03:05:46;;;;;;;55.42;52.47;;;;;;;;;;5112499;27;20145;-53
2024/03/19 03:08:11;;;;;;;55.47;52.53;;;;;;;;;;5110911;27;20368;-55
2024/03/19 03:10:37;;;;;;;55.65;52.80;;;;;;;;;;5112130;27;20587;-50
2024/03/19 03:13:03;;;;;;;60.75;57.67;;;;;;;;;;5113166;27;20051;-55
2024/03/19 03:15:28;;;;;;;56.72;53.72;;;;;;;;;;5111217;27;20035;-55
2024/03/19 03:17:55;;;;;;;60.28;56.60;;;;;;;;;;5109622;27;20042;-54
2024/03/19 03:20:21;;;;;;;56.72;53.80;;;;;;;;;;5114145;27;20031;-51
2024/03/19 03:22:46;;;;;;;57.63;54.40;;;;;;;;;;5111911;27;20039;-52
2024/03/19 03:25:11;;;;;;;54.88;52.08;;;;;;;;;;5113187;27;20019;-55
2024/03/19 03:27:39;;;;;;;54.88;52.10;;;;;;;;;;5110489;27;20058;-55
2024/03/19 03:30:08;;;;;;;62.33;59.15;;;;;;;;;;5110285;27;20067;-53
2024/03/19 03:32:34;;;;;;;57.25;54.33;;;;;;;;;;5110740;27;20051;-57
2024/03/19 03:35:00;;;;;;;56.35;53.50;;;;;;;;;;5112369;27;20027;-55
2024/03/19 03:37:25;;;;;;;55.65;52.78;;;;;;;;;;5110802;28;20039;-53
2024/03/19 03:39:51;;;;;;;58.55;55.58;;;;;;;;;;5117838;27;20031;-54
2024/03/19 03:42:17;;;;;;;62.15;58.83;;;;;;;;;;5111367;27;20042;-54
2024/03/19 03:44:43;;;;;;;57.53;54.53;;;;;;;;;;5095220;28;20472;-53
2024/03/19 03:47:08;;;;;;;57.03;54.00;;;;;;;;;;5109866;28;20122;-53
2024/03/19 03:49:33;;;;;;;57.78;54.65;;;;;;;;;;5111801;28;20108;-54
2024/03/19 03:51:59;;;;;;;54.63;51.78;;;;;;;;;;5109841;28;20360;-52
2024/03/19 03:54:24;;;;;;;54.63;51.78;;;;;;;;;;5111089;28;20053;-54
2024/03/19 03:56:50;;;;;;;57.58;54.55;;;;;;;;;;5114301;28;20046;-55
2024/03/19 03:59:15;;;;;;;54.20;51.20;;;;;;;;;;5111318;28;20031;-55
2024/03/19 04:01:41;;;;;;;52.42;49.42;;;;;;;;;;5111302;28;20031;-54
2024/03/19 04:04:06;;;;;;;56.78;53.72;;;;;;;;;;5110923;28;20117;-54
2024/03/19 04:06:31;;;;;;;58.17;54.83;;;;;;;;;;5110743;28;20039;-52
2024/03/19 04:08:57;;;;;;;70.10;66.53;;;;;;;;;;5115040;28;20035;-50
2024/03/19 04:11:22;;;;;;;70.03;66.32;;;;;;;;;;5110010;28;20060;-54
2024/03/19 04:13:48;;;;;;;78.60;74.60;;;;;;;;;;5118897;28;20055;-54
2024/03/19 04:16:13;;;;;;;87.20;82.60;;;;;;;;;;5094646;28;20038;-54
2024/03/19 04:18:39;;;;;;;90.45;85.78;;;;;;;;;;5105890;28;20038;-54
2024/03/19 04:21:04;;;;;;;101.18;95.93;;;;;;;;;;5113822;28;20372;-53
2024/03/19 04:23:29;;;;;;;102.05;96.47;;;;;;;;;;5113129;27;20089;-55
2024/03/19 04:25:55;;;;;;;79.30;74.38;;;;;;;;;;5115708;27;20038;-55
2024/03/19 04:28:20;;;;;;;78.38;74.05;;;;;;;;;;5112650;27;20481;-54
2024/03/19 04:30:45;;;;;;;87.03;82.50;;;;;;;;;;5113801;27;20026;-52
2024/03/19 04:33:11;;;;;;;95.50;90.43;;;;;;;;;;5112307;27;20042;-50
2024/03/19 04:35:37;;;;;;;77.55;73.57;;;;;;;;;;5114547;27;20358;-51
2024/03/19 04:38:04;;;;;;;86.40;81.88;;;;;;;;;;5112201;27;20690;-51
2024/03/19 04:40:30;;;;;;;90.30;85.60;;;;;;;;;;5115339;27;20035;-52
2024/03/19 04:42:55;;;;;;;82.75;78.45;;;;;;;;;;5095683;27;20164;-51
2024/03/19 04:45:21;;;;;;;97.85;92.78;;;;;;;;;;5113639;27;20065;-49
2024/03/19 04:47:47;;;;;;;88.10;83.25;;;;;;;;;;5110467;27;20042;-49
2024/03/19 04:50:13;;;;;;;74.93;70.70;;;;;;;;;;5115381;27;20027;-51
2024/03/19 04:52:39;;;;;;;85.72;81.00;;;;;;;;;;5114558;27;20039;-49
2024/03/19 04:55:04;;;;;;;90.90;85.53;;;;;;;;;;5117121;27;20032;-51
2024/03/19 04:57:30;;;;;;;95.03;90.15;;;;;;;;;;5115888;27;20072;-54
2024/03/19 04:59:56;;;;;;;86.63;81.55;;;;;;;;;;5095026;27;20855;-54
2024/03/19 05:02:21;;;;;;;88.60;83.75;;;;;;;;;;5112270;27;20039;-50
2024/03/19 05:04:46;;;;;;;93.13;87.78;;;;;;;;;;5113309;27;20346;-50
2024/03/19 05:07:12;;;;;;;91.55;86.90;;;;;;;;;;5112061;27;20129;-54
2024/03/19 05:09:38;;;;;;;83.07;78.65;;;;;;;;;;5112209;27;20127;-53
2024/03/19 05:12:04;;;;;;;91.60;86.75;;;;;;;;;;5108757;27;20084;-54
2024/03/19 05:14:29;;;;;;;98.35;93.13;;;;;;;;;;5113656;27;20084;-51
2024/03/19 05:16:55;;;;;;;78.45;74.35;;;;;;;;;;5112368;27;20032;-55
2024/03/19 05:19:20;;;;;;;78.70;74.63;;;;;;;;;;5115441;27;20038;-52
2024/03/19 05:21:46;;;;;;;88.55;83.88;;;;;;;;;;5115970;27;20029;-55
2024/03/19 05:24:11;;;;;;;87.63;83.00;;;;;;;;;;5113730;27;20041;-54
2024/03/19 05:26:36;;;;;;;81.38;77.07;;;;;;;;;;5110952;27;20678;-53
2024/03/19 05:29:02;;;;;;;90.50;85.30;;;;;;;;;;5091603;27;20069;-53
2024/03/19 05:31:28;;;;;;;94.65;89.53;;;;;;;;;;5112540;27;20103;-53
2024/03/19 05:33:55;;;;;;;104.25;98.85;;;;;;;;;;5094181;28;20536;-55
2024/03/19 05:36:21;;;;;;;98.43;93.18;;;;;;;;;;5110623;27;20032;-54
2024/03/19 05:38:47;;;;;;;95.75;90.63;;;;;;;;;;5112087;27;20066;-52
2024/03/19 05:41:14;;;;;;;86.75;81.97;;;;;;;;;;5091654;27;20152;-54
2024/03/19 05:43:40;;;;;;;76.10;72.03;;;;;;;;;;5114524;27;20108;-54
2024/03/19 05:46:05;;;;;;;81.80;77.28;;;;;;;;;;5095158;27;20043;-52
2024/03/19 05:48:32;;;;;;;89.93;85.30;;;;;;;;;;5093741;27;20376;-50
2024/03/19 05:50:58;;;;;;;81.57;76.82;;;;;;;;;;5112221;27;20433;-55
2024/03/19 05:53:23;;;;;;;89.65;84.55;;;;;;;;;;5112139;27;22028;-54
2024/03/19 05:55:48;;;;;;;90.22;84.70;;;;;;;;;;5111886;27;20088;-55
2024/03/19 05:58:14;;;;;;;84.70;80.13;;;;;;;;;;5110403;27;20063;-55
2024/03/19 06:00:39;;;;;;;95.25;90.35;;;;;;;;;;5112642;27;20085;-55
2024/03/19 06:03:05;;;;;;;90.22;85.38;;;;;;;;;;5108502;27;20122;-55
2024/03/19 06:05:31;;;;;;;92.80;87.57;;;;;;;;;;5095057;27;20027;-54
2024/03/19 06:07:56;;;;;;;92.10;86.65;;;;;;;;;;5114734;27;20027;-54
2024/03/19 06:10:22;;;;;;;100.15;94.78;;;;;;;;;;5093911;27;20034;-56
2024/03/19 06:12:47;;;;;;;97.38;92.32;;;;;;;;;;5094673;28;20055;-56
2024/03/19 06:15:12;;;;;;;93.03;88.00;;;;;;;;;;5114158;27;20047;-56
2024/03/19 06:17:38;;;;;;;90.70;85.25;;;;;;;;;;5094478;27;20043;-56
2024/03/19 06:20:14;;;;;;;93.35;88.30;;;;;;;;;;5111448;27;20036;-55
2024/03/19 06:22:41;;;;;;;97.72;91.63;;;;;;;;;;5113889;27;20031;-53
2024/03/19 06:25:07;;;;;;;99.95;94.25;;;;;;;;;;5106947;27;20042;-54
2024/03/19 06:27:32;;;;;;;108.15;101.80;;;;;;;;;;5085350;27;20042;-51
2024/03/19 06:29:58;;;;;;;112.03;105.70;;;;;;;;;;5109207;27;20039;-49
2024/03/19 06:32:24;;;;;;;113.47;107.25;;;;;;;;;;5090301;27;20035;-52
2024/03/19 06:34:49;;;;;;;117.88;111.40;;;;;;;;;;5109704;27;20563;-56
2024/03/19 06:37:15;;;;;;;117.88;111.20;;;;;;;;;;5107956;27;20051;-53
2024/03/19 06:39:40;;;;;;;112.95;106.90;;;;;;;;;;5108258;27;20031;-54
2024/03/19 06:42:05;;;;;;;117.63;111.32;;;;;;;;;;5111335;27;20036;-55
2024/03/19 06:44:31;;;;;;;122.13;115.72;;;;;;;;;;5110851;27;20697;-55
2024/03/19 06:46:56;;;;;;;112.15;105.90;;;;;;;;;;5108741;27;20035;-54
2024/03/19 06:49:24;;;;;;;117.78;111.47;;;;;;;;;;5112579;27;20058;-53
2024/03/19 06:51:50;;;;;;;108.22;102.43;;;;;;;;;;5110788;27;20479;-55
2024/03/19 06:54:15;;;;;;;126.40;119.70;;;;;;;;;;5108830;27;20031;-53
2024/03/19 06:56:41;;;;;;;120.97;114.07;;;;;;;;;;5113502;27;20038;-55
2024/03/19 06:59:09;;;;;;;126.00;119.38;;;;;;;;;;5106610;27;20436;-55
2024/03/19 07:01:36;;;;;;;123.10;116.32;;;;;;;;;;5112467;27;20036;-56
2024/03/19 07:04:02;;;;;;;121.95;115.45;;;;;;;;;;5110138;27;20529;-55
2024/03/19 07:06:29;;;;;;;127.65;120.82;;;;;;;;;;5112800;27;20027;-54
2024/03/19 07:08:55;;;;;;;127.47;120.68;;;;;;;;;;5111726;27;20035;-55
2024/03/19 07:11:21;;;;;;;116.75;110.07;;;;;;;;;;5096187;27;20058;-53
2024/03/19 07:13:47;;;;;;;123.03;116.25;;;;;;;;;;5092577;28;20024;-53
2024/03/19 07:16:12;;;;;;;133.15;125.82;;;;;;;;;;5111611;27;20028;-54
2024/03/19 07:18:37;;;;;;;131.18;123.63;;;;;;;;;;5112332;27;20151;-53
2024/03/19 07:21:03;;;;;;;125.53;117.68;;;;;;;;;;5111231;27;20026;-59
2024/03/19 07:23:28;;;;;;;118.65;112.22;;;;;;;;;;5109432;27;20023;-59
2024/03/19 07:25:55;;;;;;;115.63;108.53;;;;;;;;;;5110768;27;20046;-59
2024/03/19 07:28:20;;;;;;;117.30;110.60;;;;;;;;;;5111271;27;20034;-59
2024/03/19 07:30:46;;;;;;;114.05;107.50;;;;;;;;;;5110086;28;20377;-59
2024/03/19 07:33:11;;;;;;;110.10;103.97;;;;;;;;;;5107766;28;20737;-59
2024/03/19 07:35:37;;;;;;;113.00;107.03;;;;;;;;;;5109195;28;20520;-59
2024/03/19 07:38:07;;;;;;;117.18;110.70;;;;;;;;;;5111531;27;20078;-59
2024/03/19 07:40:33;;;;;;;121.83;115.07;;;;;;;;;;5112799;27;20034;-59
2024/03/19 07:42:58;;;;;;;121.53;115.13;;;;;;;;;;5111291;28;20024;-59
2024/03/19 07:45:23;;;;;;;127.05;120.10;;;;;;;;;;5110928;28;20119;-59
2024/03/19 07:47:49;;;;;;;143.88;136.02;;;;;;;;;;5110339;28;20023;-59
2024/03/19 07:50:18;;;;;;;126.53;119.85;;;;;;;;;;5093164;28;20023;-59
2024/03/19 07:52:46;;;;;;;114.80;108.47;;;;;;;;;;5109184;28;20043;-59
2024/03/19 07:55:12;;;;;;;115.93;109.53;;;;;;;;;;5107512;28;20993;-59
2024/03/19 07:57:37;;;;;;;120.20;113.43;;;;;;;;;;5093898;27;20036;-59
2024/03/19 08:00:11;;;;;;;116.07;109.70;;;;;;;;;;5081755;27;20039;-59
2024/03/19 08:02:38;;;;;;;116.53;110.18;;;;;;;;;;5114580;27;20180;-59
2024/03/19 08:05:03;;;;;;;119.55;112.93;;;;;;;;;;5112710;27;20108;-59
2024/03/19 08:07:28;;;;;;;120.32;113.93;;;;;;;;;;5113769;27;20164;-59
2024/03/19 08:09:54;;;;;;;119.38;112.53;;;;;;;;;;5117500;27;20062;-59
2024/03/19 08:12:20;;;;;;;123.38;115.45;;;;;;;;;;5112985;27;20470;-59
2024/03/19 08:14:45;;;;;;;128.25;121.38;;;;;;;;;;5096850;27;20034;-59
2024/03/19 08:17:10;;;;;;;125.32;118.57;;;;;;;;;;5112262;27;20027;-59
2024/03/19 08:19:36;;;;;;;121.82;115.20;;;;;;;;;;5115548;27;20027;-59
2024/03/19 08:22:03;;;;;;;126.22;118.78;;;;;;;;;;5116452;27;20032;-59
2024/03/19 08:24:29;;;;;;;132.73;125.75;;;;;;;;;;5119259;27;20043;-59
2024/03/19 08:26:55;;;;;;;131.50;124.82;;;;;;;;;;5116873;27;20031;-59
2024/03/19 08:29:20;;;;;;;124.60;117.90;;;;;;;;;;5115849;27;20396;-59
2024/03/19 08:31:46;;;;;;;135.35;127.97;;;;;;;;;;5098312;27;20032;-59
2024/03/19 08:34:11;;;;;;;130.02;123.30;;;;;;;;;;5116081;27;20039;-59
2024/03/19 08:36:37;;;;;;;125.70;119.10;;;;;;;;;;5116105;27;20031;-59
2024/03/19 08:39:04;;;;;;;118.28;112.20;;;;;;;;;;5112938;27;20047;-59
2024/03/19 08:41:29;;;;;;;131.35;124.20;;;;;;;;;;5112511;27;20168;-59
2024/03/19 08:43:56;;;;;;;133.65;126.47;;;;;;;;;;5095500;27;20217;-59
2024/03/19 08:46:21;;;;;;;127.97;121.32;;;;;;;;;;5114622;27;20792;-59
2024/03/19 08:48:48;;;;;;;134.90;127.65;;;;;;;;;;5115691;27;20031;-59
2024/03/19 08:51:14;;;;;;;140.52;133.20;;;;;;;;;;5113671;27;20084;-59
2024/03/19 08:53:40;;;;;;;144.05;136.60;;;;;;;;;;5099369;27;20023;-59
2024/03/19 08:56:06;;;;;;;140.68;133.45;;;;;;;;;;5115203;27;20031;-59
2024/03/19 08:58:31;;;;;;;152.68;144.48;;;;;;;;;;5113358;27;20031;-59
2024/03/19 09:00:57;;;;;;;160.60;152.40;;;;;;;;;;5098249;27;20031;-59
2024/03/19 09:03:22;;;;;;;160.43;152.27;;;;;;;;;;5117021;27;20043;-59
2024/03/19 09:05:57;;;;;;;179.02;169.90;;;;;;;;;;5114867;27;20100;-59
2024/03/19 09:08:23;;;;;;;168.05;159.30;;;;;;;;;;5118814;27;20038;-59
2024/03/19 09:10:52;;;;;;;176.05;166.98;;;;;;;;;;5112587;27;20036;-59
2024/03/19 09:13:18;;;;;;;180.88;171.45;;;;;;;;;;5116836;27;20027;-59
2024/03/19 09:15:44;;;;;;;182.90;173.32;;;;;;;;;;5113984;27;20042;-59
2024/03/19 09:18:09;;;;;;;186.70;176.93;;;;;;;;;;5095595;27;20420;-57
2024/03/19 09:20:35;;;;;;;202.98;192.70;;;;;;;;;;5112451;27;20023;-58
2024/03/19 09:23:00;;;;;;;188.48;178.88;;;;;;;;;;5111070;27;20083;-58
2024/03/19 09:25:26;;;;;;;183.18;173.60;;;;;;;;;;5095364;27;20663;-58
2024/03/19 09:27:51;;;;;;;188.30;178.18;;;;;;;;;;5113941;27;20035;-58
2024/03/19 09:30:16;;;;;;;200.23;189.95;;;;;;;;;;5114191;27;20686;-58
2024/03/19 09:32:42;;;;;;;187.65;178.20;;;;;;;;;;5107970;27;20055;-58
2024/03/19 09:35:08;;;;;;;186.07;176.63;;;;;;;;;;5112967;27;20441;-58
2024/03/19 09:37:33;;;;;;;180.38;171.18;;;;;;;;;;5111333;27;20031;-59
2024/03/19 09:39:59;;;;;;;172.60;163.60;;;;;;;;;;5115056;27;20026;-58
2024/03/19 09:42:26;;;;;;;190.57;180.75;;;;;;;;;;5111964;27;20032;-58
2024/03/19 09:44:52;;;;;;;196.50;186.40;;;;;;;;;;5117242;27;20102;-58
2024/03/19 09:47:20;;;;;;;197.98;187.77;;;;;;;;;;5113488;27;20179;-58
2024/03/19 09:49:46;;;;;;;149.25;141.65;;;;;;;;;;5096748;27;20020;-58
2024/03/19 09:52:13;;;;;;;150.45;142.55;;;;;;;;;;5096031;27;20031;-58
2024/03/19 09:54:40;;;;;;;158.73;150.60;;;;;;;;;;5114371;27;20445;-58
2024/03/19 09:57:13;;;;;;;164.77;155.45;;;;;;;;;;5112205;27;20138;-58
2024/03/19 09:59:38;;;;;;;174.50;165.73;;;;;;;;;;5113306;27;20107;-58
2024/03/19 10:02:17;;;;;;;158.80;150.68;;;;;;;;;;5113342;27;20564;-58
2024/03/19 10:04:46;;;;;;;164.80;156.43;;;;;;;;;;5109836;27;20042;-58
2024/03/19 10:07:15;;;;;;;173.48;164.65;;;;;;;;;;5113585;27;20062;-58
2024/03/19 10:09:48;;;;;;;187.23;177.35;;;;;;;;;;5114680;27;20108;-58
2024/03/19 10:12:14;;;;;;;189.38;179.48;;;;;;;;;;5113585;27;20045;-58
2024/03/19 10:14:40;;;;;;;194.68;184.88;;;;;;;;;;5114357;27;20055;-59
2024/03/19 10:17:09;;;;;;;163.55;154.93;;;;;;;;;;5113548;27;20067;-59
2024/03/19 10:19:35;;;;;;;187.85;178.45;;;;;;;;;;5095381;27;20047;-58
2024/03/19 10:22:01;;;;;;;149.65;141.88;;;;;;;;;;5112876;27;20059;-58
2024/03/19 10:24:26;;;;;;;150.23;142.10;;;;;;;;;;5113418;27;20655;-59
2024/03/19 10:26:53;;;;;;;198.30;188.25;;;;;;;;;;5111430;27;20123;-58
2024/03/19 10:29:18;;;;;;;167.98;159.25;;;;;;;;;;5096938;27;20027;-59
2024/03/19 10:31:48;;;;;;;113.25;106.95;;;;;;;;;;5114234;27;20049;-58
2024/03/19 10:34:21;;;;;;;128.38;121.78;;;;;;;;;;5112533;27;20031;-58
2024/03/19 10:36:49;;;;;;;198.77;188.75;;;;;;;;;;5115799;27;20637;-58
2024/03/19 10:39:20;;;;;;;175.80;166.55;;;;;;;;;;5093902;27;20023;-58
2024/03/19 10:41:48;;;;;;;163.60;155.02;;;;;;;;;;5112555;27;20446;-58
2024/03/19 10:44:21;;;;;;;100.75;95.13;;;;;;;;;;5112521;27;20106;-58
2024/03/19 10:46:48;;;;;;;111.40;105.60;;;;;;;;;;5109205;27;20035;-58
2024/03/19 10:49:15;;;;;;;167.93;159.10;;;;;;;;;;5113737;27;20055;-58
2024/03/19 10:52:06;;;;;;;201.40;191.10;;;;;;;;;;5111743;27;20016;-58
2024/03/19 10:54:35;;;;;;;203.25;192.93;;;;;;;;;;5095382;28;20471;-58
2024/03/19 10:57:02;;;;;;;120.45;114.10;;;;;;;;;;5110449;27;20117;-58
2024/03/19 10:59:36;;;;;;;148.90;141.23;;;;;;;;;;5114352;27;20035;-59
2024/03/19 11:02:05;;;;;;;99.95;94.82;;;;;;;;;;5112396;27;20046;-58
2024/03/19 11:04:32;;;;;;;108.97;103.32;;;;;;;;;;5112503;27;20023;-58
2024/03/19 11:06:58;;;;;;;139.70;132.32;;;;;;;;;;5094535;27;20104;-58
2024/03/19 11:09:26;;;;;;;150.23;142.43;;;;;;;;;;5113976;27;20027;-58
2024/03/19 11:11:54;;;;;;;167.75;159.30;;;;;;;;;;5115793;27;20077;-58
2024/03/19 11:14:22;;;;;;;186.35;176.75;;;;;;;;;;5110537;27;20081;-58
2024/03/19 11:16:48;;;;;;;155.20;147.23;;;;;;;;;;5092077;28;20038;-58
2024/03/19 11:19:19;;;;;;;161.63;153.10;;;;;;;;;;5112293;27;20023;-58
2024/03/19 11:21:47;;;;;;;56.65;52.92;;;;;;;;;;5111059;27;20035;-58
2024/03/19 11:24:21;;;;;;;48.20;45.40;;;;;;;;;;5094904;27;20038;-58
2024/03/19 11:26:46;;;;;;;42.42;38.95;;;;;;;;;;5111208;27;20035;-58
2024/03/19 11:29:14;;;;;;;54.60;51.60;;;;;;;;;;5109731;27;20038;-59
2024/03/19 11:31:44;;;;;;;108.43;102.63;;;;;;;;;;5113009;27;20049;-58
2024/03/19 11:34:17;;;;;;;73.00;69.25;;;;;;;;;;5111102;27;20032;-58
2024/03/19 11:36:49;;;;;;;76.35;72.38;;;;;;;;;;5111779;27;20036;-58
2024/03/19 11:39:15;;;;;;;79.10;74.97;;;;;;;;;;5114288;27;20032;-58
2024/03/19 11:41:42;;;;;;;56.92;53.88;;;;;;;;;;5110695;28;20043;-58
2024/03/19 11:44:17;;;;;;;57.78;54.55;;;;;;;;;;5093571;27;20043;-58
2024/03/19 11:46:45;;;;;;;38.03;35.97;;;;;;;;;;5116062;28;20029;-58
2024/03/19 11:49:26;;;;;;;38.05;35.78;;;;;;;;;;5111234;28;20039;-59
2024/03/19 11:51:59;;;;;;;;;;;;;;;;;;5096062;28;20031;-59
2024/03/19 11:54:29;;;;;;;36.42;33.67;;;;;;;;;;5112358;28;19947;-59
2024/03/19 11:56:55;;;;;;;36.00;33.83;;;;;;;;;;5094245;28;20042;-58
2024/03/19 11:59:24;;;;;;;35.63;33.58;;;;;;;;;;5112616;28;20024;-58
2024/03/19 12:01:52;;;;;;;38.15;35.85;;;;;;;;;;5109029;28;20035;-59
2024/03/19 12:04:20;;;;;;;38.75;36.35;;;;;;;;;;5111334;28;20134;-58
2024/03/19 12:06:47;;;;;;;40.75;38.42;;;;;;;;;;5111439;28;20057;-58
2024/03/19 12:09:12;;;;;;;63.88;60.38;;;;;;;;;;5111874;28;20031;-59
2024/03/19 12:11:38;;;;;;;92.50;87.75;;;;;;;;;;5113682;28;20139;-58
2024/03/19 12:14:03;;;;;;;49.92;46.95;;;;;;;;;;5111457;28;20046;-59
2024/03/19 12:16:29;;;;;;;53.83;49.88;;;;;;;;;;5110133;28;20039;-59
2024/03/19 12:18:55;;;;;;;120.65;114.43;;;;;;;;;;5112997;28;20367;-60
2024/03/19 12:21:20;;;;;;;107.13;101.55;;;;;;;;;;5114615;28;20020;-59
2024/03/19 12:23:45;;;;;;;105.10;98.97;;;;;;;;;;5113048;28;20038;-59
2024/03/19 12:26:11;;;;;;;105.72;100.40;;;;;;;;;;5114244;28;20064;-59
2024/03/19 12:28:39;;;;;;;91.53;86.57;;;;;;;;;;5113288;28;20047;-59
2024/03/19 12:31:05;;;;;;;93.53;88.47;;;;;;;;;;5114017;28;20433;-59
2024/03/19 12:33:40;;;;;;;89.50;84.82;;;;;;;;;;5111874;28;20074;-59
2024/03/19 12:36:07;;;;;;;117.22;111.00;;;;;;;;;;5114220;28;20055;-59
2024/03/19 12:38:32;;;;;;;140.68;133.48;;;;;;;;;;5096652;28;20050;-59
2024/03/19 12:40:59;;;;;;;129.30;122.53;;;;;;;;;;5114061;28;20039;-59
2024/03/19 12:43:25;;;;;;;83.28;78.70;;;;;;;;;;5095423;27;20035;-59
2024/03/19 12:45:50;;;;;;;82.53;78.18;;;;;;;;;;5115573;27;20038;-59
2024/03/19 12:48:16;;;;;;;67.18;63.67;;;;;;;;;;5115472;27;20452;-59
2024/03/19 12:50:41;;;;;;;71.45;67.75;;;;;;;;;;5099036;27;20457;-59
2024/03/19 12:53:07;;;;;;;69.28;65.53;;;;;;;;;;5118721;27;20047;-59
2024/03/19 12:55:32;;;;;;;67.35;63.75;;;;;;;;;;5081765;27;20898;-59
2024/03/19 12:57:58;;;;;;;68.43;64.72;;;;;;;;;;5118417;27;20117;-59
2024/03/19 13:00:23;;;;;;;64.68;61.15;;;;;;;;;;5116835;27;20120;-59
2024/03/19 13:02:54;;;;;;;54.50;51.55;;;;;;;;;;5117118;27;20031;-59
2024/03/19 13:05:19;;;;;;;;;;;;;;;;;;5116615;27;20034;-59
2024/03/19 13:07:45;;;;;;;52.28;49.47;;;;;;;;;;5112741;27;19920;-59
2024/03/19 13:10:10;;;;;;;48.90;46.22;;;;;;;;;;5098317;27;20047;-59
2024/03/19 13:12:36;;;;;;;57.60;54.53;;;;;;;;;;5105663;27;20039;-59
2024/03/19 13:15:03;;;;;;;52.13;49.30;;;;;;;;;;5105590;27;20043;-59
2024/03/19 13:17:28;;;;;;;69.40;64.90;;;;;;;;;;5107141;27;20039;-59
2024/03/19 13:19:56;;;;;;;75.80;71.90;;;;;;;;;;5110896;27;20022;-59
2024/03/19 13:22:22;;;;;;;73.32;69.35;;;;;;;;;;5107408;27;20131;-59
2024/03/19 13:24:48;;;;;;;82.22;77.88;;;;;;;;;;5106060;27;20091;-59
2024/03/19 13:27:13;;;;;;;93.90;88.95;;;;;;;;;;5117521;27;20511;-59
2024/03/19 13:29:39;;;;;;;93.55;88.75;;;;;;;;;;5115793;27;20099;-59
2024/03/19 13:32:05;;;;;;;89.18;84.65;;;;;;;;;;5114848;27;20035;-60
2024/03/19 13:34:30;;;;;;;104.88;99.13;;;;;;;;;;5093442;27;20563;-59
2024/03/19 13:36:57;;;;;;;56.28;53.20;;;;;;;;;;5109383;27;20027;-58
2024/03/19 13:39:23;;;;;;;76.93;72.93;;;;;;;;;;5110749;27;20075;-59
2024/03/19 13:41:49;;;;;;;73.05;69.30;;;;;;;;;;5108487;27;20031;-59
2024/03/19 13:44:14;;;;;;;116.05;110.03;;;;;;;;;;5112971;27;20643;-59
2024/03/19 13:46:39;;;;;;;138.93;131.75;;;;;;;;;;5113416;27;20114;-59
2024/03/19 13:49:05;;;;;;;70.47;66.75;;;;;;;;;;5114074;27;20476;-59
2024/03/19 13:51:30;;;;;;;70.50;66.82;;;;;;;;;;5114416;27;20039;-59
2024/03/19 13:53:58;;;;;;;60.92;57.78;;;;;;;;;;5115993;27;20054;-59
2024/03/19 13:56:24;;;;;;;48.90;46.28;;;;;;;;;;5111149;27;20536;-59
2024/03/19 13:58:49;;;;;;;65.40;61.67;;;;;;;;;;5113691;27;20070;-60
2024/03/19 14:01:14;;;;;;;73.18;69.43;;;;;;;;;;5112311;27;20038;-60